SBRP

Leite Lopes Airport

Ribeirão Preto, Brazil
TAF SBRP 212130Z 2200/2224 12005KT 8000 NSC TN22/2209Z TX34/2218Z BECMG 2208/2210 36005KT BECMG 2212/2214 30007KT SCT045 PROB30 2217/2221 8000 TSRA SCT035 FEW045CB BECMG 2221/2223 13005KT NSC RMK PHG
Issued Valid From Valid To
Jan-21 @ 21:30 UTC
(3 hours ago)
Jan-22 @ 00:00 UTC
(56 minutes ago)
Jan-23 @ 00:00 UTC
(in 23 hours)
Jan-22 @ 00:00 to Jan-22 @ 08:00
TAF SBRP 212130Z 2200/2224 12005KT 8000 NSC TN22/2209Z TX34/2218Z
Wind Visibility Clouds
120° at 5 knots 7,998 meters
  • No significant clouds
Becoming Jan-22 @ 08:00 to Jan-22 @ 12:00
BECMG 2208/2210 36005KT
Wind Visibility Clouds
360° at 5 knots 7,998 meters
  • No significant clouds
Becoming Jan-22 @ 12:00 to Jan-22 @ 21:00
BECMG 2212/2214 30007KT SCT045
Wind Visibility Clouds
300° at 7 knots 7,998 meters
  • Scattered at 4,500' AGL
Probable  (Probability 30%) Jan-22 @ 17:00 to Jan-22 @ 21:00
PROB30 2217/2221 8000 TSRA SCT035 FEW045CB
Visibility Clouds Conditions
7,998 meters
  • Scattered at 3,500' AGL
  • Few at 4,500' AGL
  • Thunderstorm
  • Rain
Becoming Jan-22 @ 21:00 to Jan-23 @ 00:00
BECMG 2221/2223 13005KT NSC RMK PHG
Wind Visibility Clouds
130° at 5 knots 7,998 meters
  • No significant clouds
TAF SBRP 212130Z 2200/2224 12005KT 8000 NSC TN22/2209Z TX34/2218Z BECMG 2208/2210 36005KT BECMG 2212/2214 30007KT SCT045 PROB30 2217/2221 8000 TSRA SCT035 FEW045CB BECMG 2221/2223 13005KT NSC RMK PHG
Issued Jan-21 @ 21:30 UTC
(3 hours ago)
Valid From Jan-22 @ 00:00 UTC
(56 minutes ago)
Valid To Jan-23 @ 00:00 UTC
(in 23 hours)
Jan-22 @ 00:00 - Jan-22 @ 08:00
Wind Visibility
120° at 5 knots 7,998 meters
Clouds
  • No significant clouds
Becoming Jan-22 @ 08:00 - Jan-22 @ 12:00
Wind Visibility
360° at 5 knots 7,998 meters
Clouds
  • No significant clouds
Becoming Jan-22 @ 12:00 - Jan-22 @ 21:00
Wind Visibility
300° at 7 knots 7,998 meters
Clouds
  • Scattered at 4,500' AGL
Probability 30% Probable Jan-22 @ 17:00 - Jan-22 @ 21:00
Clouds
  • Scattered at 3,500' AGL
  • Few at 4,500' AGL
Conditions
  • Thunderstorm
  • Rain
Becoming Jan-22 @ 21:00 - Jan-23 @ 00:00
Wind Visibility
130° at 5 knots 7,998 meters
Clouds
  • No significant clouds